sensor_id;sensor_type;location;lat;lon;timestamp;P1;durP1;ratioP1;P2;durP2;ratioP2
52396;SDS011;38322;53.108;6.308;2023-11-21T06:02:45;18.55;;;11.02;;
52396;SDS011;38322;53.108;6.308;2023-11-21T06:05:12;22.85;;;10.30;;
52396;SDS011;38322;53.108;6.308;2023-11-21T06:07:37;21.70;;;9.73;;
52396;SDS011;38322;53.108;6.308;2023-11-21T06:10:05;27.92;;;12.00;;
52396;SDS011;38322;53.108;6.308;2023-11-21T06:12:34;27.60;;;13.05;;
52396;SDS011;38322;53.108;6.308;2023-11-21T06:15:02;23.88;;;13.02;;
52396;SDS011;38322;53.108;6.308;2023-11-21T06:17:30;26.60;;;13.63;;
52396;SDS011;38322;53.108;6.308;2023-11-21T06:19:56;33.25;;;13.65;;
52396;SDS011;38322;53.108;6.308;2023-11-21T06:22:22;31.63;;;15.38;;
52396;SDS011;38322;53.108;6.308;2023-11-21T06:24:48;28.52;;;14.45;;
52396;SDS011;38322;53.108;6.308;2023-11-21T06:27:14;36.50;;;13.48;;
52396;SDS011;38322;53.108;6.308;2023-11-21T06:29:41;37.17;;;14.35;;
52396;SDS011;38322;53.108;6.308;2023-11-21T06:32:07;29.05;;;13.38;;
52396;SDS011;38322;53.108;6.308;2023-11-21T06:34:33;28.00;;;13.93;;
52396;SDS011;38322;53.108;6.308;2023-11-21T06:36:59;27.85;;;12.20;;
52396;SDS011;38322;53.108;6.308;2023-11-21T06:39:25;25.83;;;12.55;;
52396;SDS011;38322;53.108;6.308;2023-11-21T06:41:52;28.83;;;12.63;;
52396;SDS011;38322;53.108;6.308;2023-11-21T06:44:18;24.60;;;11.55;;
52396;SDS011;38322;53.108;6.308;2023-11-21T06:46:45;26.73;;;11.55;;
52396;SDS011;38322;53.108;6.308;2023-11-21T06:49:10;24.05;;;12.68;;
52396;SDS011;38322;53.108;6.308;2023-11-21T06:51:37;24.67;;;12.65;;
52396;SDS011;38322;53.108;6.308;2023-11-21T06:54:02;19.52;;;10.20;;
52396;SDS011;38322;53.108;6.308;2023-11-21T06:56:28;25.45;;;11.82;;
52396;SDS011;38322;53.108;6.308;2023-11-21T06:58:54;23.33;;;11.70;;
52396;SDS011;38322;53.108;6.308;2023-11-21T07:01:21;22.80;;;11.13;;
52396;SDS011;38322;53.108;6.308;2023-11-21T07:03:48;23.65;;;12.13;;
52396;SDS011;38322;53.108;6.308;2023-11-21T07:06:14;20.88;;;11.13;;
52396;SDS011;38322;53.108;6.308;2023-11-21T07:08:40;24.95;;;11.98;;
52396;SDS011;38322;53.108;6.308;2023-11-21T07:11:06;29.42;;;11.52;;
52396;SDS011;38322;53.108;6.308;2023-11-21T07:13:32;22.63;;;11.05;;
52396;SDS011;38322;53.108;6.308;2023-11-21T07:15:59;27.23;;;12.35;;
52396;SDS011;38322;53.108;6.308;2023-11-21T07:18:25;26.98;;;11.93;;
52396;SDS011;38322;53.108;6.308;2023-11-21T07:20:50;25.75;;;13.15;;
52396;SDS011;38322;53.108;6.308;2023-11-21T07:23:17;23.17;;;12.38;;
52396;SDS011;38322;53.108;6.308;2023-11-21T07:25:43;25.85;;;12.20;;
52396;SDS011;38322;53.108;6.308;2023-11-21T07:28:09;28.25;;;13.70;;
52396;SDS011;38322;53.108;6.308;2023-11-21T07:30:35;35.13;;;16.33;;
52396;SDS011;38322;53.108;6.308;2023-11-21T07:33:01;35.15;;;16.52;;
52396;SDS011;38322;53.108;6.308;2023-11-21T07:35:26;36.53;;;16.40;;
52396;SDS011;38322;53.108;6.308;2023-11-21T07:37:52;36.25;;;14.75;;
52396;SDS011;38322;53.108;6.308;2023-11-21T07:40:18;36.95;;;17.20;;
52396;SDS011;38322;53.108;6.308;2023-11-21T07:42:44;35.60;;;15.52;;
52396;SDS011;38322;53.108;6.308;2023-11-21T07:45:09;26.42;;;11.27;;
52396;SDS011;38322;53.108;6.308;2023-11-21T07:47:36;18.10;;;10.18;;
52396;SDS011;38322;53.108;6.308;2023-11-21T07:50:04;24.15;;;11.15;;
52396;SDS011;38322;53.108;6.308;2023-11-21T07:52:32;21.42;;;10.20;;
52396;SDS011;38322;53.108;6.308;2023-11-21T07:54:58;20.98;;;9.57;;
52396;SDS011;38322;53.108;6.308;2023-11-21T07:57:24;25.45;;;10.43;;
52396;SDS011;38322;53.108;6.308;2023-11-21T07:59:51;26.92;;;12.20;;
52396;SDS011;38322;53.108;6.308;2023-11-21T08:02:18;26.70;;;12.50;;
52396;SDS011;38322;53.108;6.308;2023-11-21T08:04:44;25.42;;;14.13;;
52396;SDS011;38322;53.108;6.308;2023-11-21T08:07:10;25.65;;;14.88;;
52396;SDS011;38322;53.108;6.308;2023-11-21T08:09:36;27.48;;;14.70;;
52396;SDS011;38322;53.108;6.308;2023-11-21T08:12:03;29.65;;;15.30;;
52396;SDS011;38322;53.108;6.308;2023-11-21T08:14:30;29.98;;;16.65;;
52396;SDS011;38322;53.108;6.308;2023-11-21T08:16:56;35.97;;;19.00;;
52396;SDS011;38322;53.108;6.308;2023-11-21T08:19:23;32.20;;;16.67;;
52396;SDS011;38322;53.108;6.308;2023-11-21T08:21:50;30.92;;;17.83;;
52396;SDS011;38322;53.108;6.308;2023-11-21T08:24:19;24.98;;;15.85;;
52396;SDS011;38322;53.108;6.308;2023-11-21T08:26:46;28.08;;;17.35;;
52396;SDS011;38322;53.108;6.308;2023-11-21T08:29:11;33.63;;;16.60;;
52396;SDS011;38322;53.108;6.308;2023-11-21T08:31:37;39.13;;;19.05;;
52396;SDS011;38322;53.108;6.308;2023-11-21T08:34:03;34.85;;;19.98;;
52396;SDS011;38322;53.108;6.308;2023-11-21T08:36:29;30.17;;;17.67;;
52396;SDS011;38322;53.108;6.308;2023-11-21T08:38:56;28.40;;;17.95;;
52396;SDS011;38322;53.108;6.308;2023-11-21T08:41:22;38.15;;;18.33;;
52396;SDS011;38322;53.108;6.308;2023-11-21T08:43:49;38.80;;;19.52;;
52396;SDS011;38322;53.108;6.308;2023-11-21T08:46:16;28.00;;;17.63;;
52396;SDS011;38322;53.108;6.308;2023-11-21T08:48:43;27.73;;;17.55;;
52396;SDS011;38322;53.108;6.308;2023-11-21T08:51:09;29.35;;;17.17;;
52396;SDS011;38322;53.108;6.308;2023-11-21T08:53:36;32.22;;;20.17;;
52396;SDS011;38322;53.108;6.308;2023-11-21T08:56:03;32.13;;;18.35;;
52396;SDS011;38322;53.108;6.308;2023-11-21T08:58:31;29.98;;;19.27;;
52396;SDS011;38322;53.108;6.308;2023-11-21T09:00:57;31.15;;;19.52;;
52396;SDS011;38322;53.108;6.308;2023-11-21T09:03:23;29.63;;;18.23;;
52396;SDS011;38322;53.108;6.308;2023-11-21T09:05:50;33.53;;;19.00;;
52396;SDS011;38322;53.108;6.308;2023-11-21T09:08:16;31.05;;;19.85;;
52396;SDS011;38322;53.108;6.308;2023-11-21T09:10:42;29.48;;;17.80;;
52396;SDS011;38322;53.108;6.308;2023-11-21T09:13:10;32.08;;;20.27;;
52396;SDS011;38322;53.108;6.308;2023-11-21T09:15:36;30.98;;;19.13;;
52396;SDS011;38322;53.108;6.308;2023-11-21T09:18:02;31.27;;;19.77;;
52396;SDS011;38322;53.108;6.308;2023-11-21T09:20:28;28.17;;;17.77;;
52396;SDS011;38322;53.108;6.308;2023-11-21T09:22:54;25.58;;;18.73;;
52396;SDS011;38322;53.108;6.308;2023-11-21T09:25:21;30.02;;;18.60;;
52396;SDS011;38322;53.108;6.308;2023-11-21T09:27:47;31.98;;;17.67;;
52396;SDS011;38322;53.108;6.308;2023-11-21T09:30:13;23.98;;;17.08;;
52396;SDS011;38322;53.108;6.308;2023-11-21T09:32:39;26.98;;;17.83;;
52396;SDS011;38322;53.108;6.308;2023-11-21T09:35:05;26.67;;;18.42;;
52396;SDS011;38322;53.108;6.308;2023-11-21T09:37:33;25.88;;;17.42;;
52396;SDS011;38322;53.108;6.308;2023-11-21T09:40:03;26.40;;;16.83;;
52396;SDS011;38322;53.108;6.308;2023-11-21T09:42:32;29.08;;;17.73;;
52396;SDS011;38322;53.108;6.308;2023-11-21T09:45:14;24.88;;;18.23;;
52396;SDS011;38322;53.108;6.308;2023-11-21T09:47:45;26.65;;;18.15;;
52396;SDS011;38322;53.108;6.308;2023-11-21T09:50:12;23.88;;;15.93;;
52396;SDS011;38322;53.108;6.308;2023-11-21T09:52:49;23.38;;;16.77;;
52396;SDS011;38322;53.108;6.308;2023-11-21T09:55:21;17.63;;;13.95;;
52396;SDS011;38322;53.108;6.308;2023-11-21T09:57:48;20.25;;;13.70;;
52396;SDS011;38322;53.108;6.308;2023-11-21T10:00:14;19.02;;;12.50;;
52396;SDS011;38322;53.108;6.308;2023-11-21T10:02:43;23.05;;;14.10;;
52396;SDS011;38322;53.108;6.308;2023-11-21T10:05:09;19.33;;;13.85;;
52396;SDS011;38322;53.108;6.308;2023-11-21T10:07:36;19.40;;;13.35;;
52396;SDS011;38322;53.108;6.308;2023-11-21T10:10:07;20.50;;;14.68;;
52396;SDS011;38322;53.108;6.308;2023-11-21T10:12:34;20.25;;;15.55;;
52396;SDS011;38322;53.108;6.308;2023-11-21T10:15:00;20.48;;;14.00;;
52396;SDS011;38322;53.108;6.308;2023-11-21T10:17:28;18.42;;;13.60;;
52396;SDS011;38322;53.108;6.308;2023-11-21T10:20:04;21.52;;;14.82;;
52396;SDS011;38322;53.108;6.308;2023-11-21T10:22:38;18.90;;;14.65;;
52396;SDS011;38322;53.108;6.308;2023-11-21T10:25:07;18.50;;;14.43;;
52396;SDS011;38322;53.108;6.308;2023-11-21T10:27:34;18.52;;;14.82;;
52396;SDS011;38322;53.108;6.308;2023-11-21T10:30:02;18.10;;;12.65;;
52396;SDS011;38322;53.108;6.308;2023-11-21T10:32:30;18.60;;;14.55;;
52396;SDS011;38322;53.108;6.308;2023-11-21T10:34:57;17.83;;;13.35;;
52396;SDS011;38322;53.108;6.308;2023-11-21T10:37:32;18.02;;;12.60;;
52396;SDS011;38322;53.108;6.308;2023-11-21T10:39:58;16.98;;;13.38;;
52396;SDS011;38322;53.108;6.308;2023-11-21T10:42:24;16.55;;;12.50;;
52396;SDS011;38322;53.108;6.308;2023-11-21T10:44:52;14.07;;;11.63;;
52396;SDS011;38322;53.108;6.308;2023-11-21T10:47:19;16.02;;;11.77;;
52396;SDS011;38322;53.108;6.308;2023-11-21T10:49:48;16.85;;;10.02;;
52396;SDS011;38322;53.108;6.308;2023-11-21T10:52:14;12.82;;;9.70;;
52396;SDS011;38322;53.108;6.308;2023-11-21T10:54:42;15.00;;;11.82;;
52396;SDS011;38322;53.108;6.308;2023-11-21T10:57:09;16.38;;;10.95;;
52396;SDS011;38322;53.108;6.308;2023-11-21T10:59:36;13.02;;;10.43;;
52396;SDS011;38322;53.108;6.308;2023-11-21T11:02:14;14.05;;;11.00;;
52396;SDS011;38322;53.108;6.308;2023-11-21T11:04:47;10.55;;;8.40;;
52396;SDS011;38322;53.108;6.308;2023-11-21T11:07:14;13.98;;;9.63;;
52396;SDS011;38322;53.108;6.308;2023-11-21T11:09:41;10.93;;;8.43;;
52396;SDS011;38322;53.108;6.308;2023-11-21T11:12:07;12.73;;;8.20;;
52396;SDS011;38322;53.108;6.308;2023-11-21T11:14:35;13.57;;;9.23;;
52396;SDS011;38322;53.108;6.308;2023-11-21T11:17:01;11.52;;;8.20;;
52396;SDS011;38322;53.108;6.308;2023-11-21T11:19:29;11.55;;;7.00;;
52396;SDS011;38322;53.108;6.308;2023-11-21T11:22:03;12.55;;;9.65;;
52396;SDS011;38322;53.108;6.308;2023-11-21T11:24:58;12.32;;;8.63;;
52396;SDS011;38322;53.108;6.308;2023-11-21T11:32:52;13.93;;;7.35;;
52396;SDS011;38322;53.108;6.308;2023-11-21T11:35:32;12.10;;;8.50;;
52396;SDS011;38322;53.108;6.308;2023-11-21T11:38:03;9.85;;;7.00;;
52396;SDS011;38322;53.108;6.308;2023-11-21T11:40:39;8.57;;;6.90;;
52396;SDS011;38322;53.108;6.308;2023-11-21T11:43:06;11.15;;;6.85;;
52396;SDS011;38322;53.108;6.308;2023-11-21T11:45:32;9.13;;;5.60;;
52396;SDS011;38322;53.108;6.308;2023-11-21T11:48:00;6.90;;;5.50;;
52396;SDS011;38322;53.108;6.308;2023-11-21T11:50:27;6.90;;;6.03;;
52396;SDS011;38322;53.108;6.308;2023-11-21T11:52:53;7.68;;;6.35;;
52396;SDS011;38322;53.108;6.308;2023-11-21T11:55:20;10.18;;;5.53;;
52396;SDS011;38322;53.108;6.308;2023-11-21T11:57:48;9.63;;;6.47;;
52396;SDS011;38322;53.108;6.308;2023-11-21T12:00:16;8.88;;;6.07;;
52396;SDS011;38322;53.108;6.308;2023-11-21T12:02:44;7.50;;;5.35;;
52396;SDS011;38322;53.108;6.308;2023-11-21T12:05:13;9.18;;;6.05;;
52396;SDS011;38322;53.108;6.308;2023-11-21T12:07:48;5.35;;;3.92;;
52396;SDS011;38322;53.108;6.308;2023-11-21T12:10:26;7.00;;;4.40;;
52396;SDS011;38322;53.108;6.308;2023-11-21T12:12:54;6.38;;;5.53;;
52396;SDS011;38322;53.108;6.308;2023-11-21T12:15:21;7.53;;;5.32;;
52396;SDS011;38322;53.108;6.308;2023-11-21T12:17:48;7.13;;;4.50;;
52396;SDS011;38322;53.108;6.308;2023-11-21T12:20:15;4.70;;;4.10;;
52396;SDS011;38322;53.108;6.308;2023-11-21T12:22:46;8.05;;;4.75;;
52396;SDS011;38322;53.108;6.308;2023-11-21T12:25:17;6.65;;;3.72;;
52396;SDS011;38322;53.108;6.308;2023-11-21T12:27:45;7.13;;;5.53;;
52396;SDS011;38322;53.108;6.308;2023-11-21T12:30:12;4.72;;;3.88;;
52396;SDS011;38322;53.108;6.308;2023-11-21T12:32:39;7.28;;;4.90;;
52396;SDS011;38322;53.108;6.308;2023-11-21T12:35:06;7.45;;;6.05;;
52396;SDS011;38322;53.108;6.308;2023-11-21T12:37:35;8.13;;;4.65;;
52396;SDS011;38322;53.108;6.308;2023-11-21T12:40:04;6.38;;;4.90;;
52396;SDS011;38322;53.108;6.308;2023-11-21T12:42:31;8.52;;;6.28;;
52396;SDS011;38322;53.108;6.308;2023-11-21T12:47:40;6.15;;;5.03;;
52396;SDS011;38322;53.108;6.308;2023-11-21T12:50:07;8.80;;;6.38;;
52396;SDS011;38322;53.108;6.308;2023-11-21T12:52:40;6.75;;;5.15;;
52396;SDS011;38322;53.108;6.308;2023-11-21T12:55:07;7.00;;;4.53;;
52396;SDS011;38322;53.108;6.308;2023-11-21T12:57:34;7.25;;;4.57;;
52396;SDS011;38322;53.108;6.308;2023-11-21T13:00:03;7.95;;;5.28;;
52396;SDS011;38322;53.108;6.308;2023-11-21T13:02:38;7.05;;;4.30;;
52396;SDS011;38322;53.108;6.308;2023-11-21T13:05:07;6.47;;;4.88;;
52396;SDS011;38322;53.108;6.308;2023-11-21T13:07:43;6.72;;;5.65;;
52396;SDS011;38322;53.108;6.308;2023-11-21T13:10:13;7.82;;;5.93;;
52396;SDS011;38322;53.108;6.308;2023-11-21T13:12:42;7.68;;;4.68;;
52396;SDS011;38322;53.108;6.308;2023-11-21T13:15:13;7.88;;;4.47;;
52396;SDS011;38322;53.108;6.308;2023-11-21T13:17:43;8.00;;;4.85;;
52396;SDS011;38322;53.108;6.308;2023-11-21T13:20:11;9.20;;;5.63;;
52396;SDS011;38322;53.108;6.308;2023-11-21T13:22:46;10.30;;;5.38;;
52396;SDS011;38322;53.108;6.308;2023-11-21T13:25:14;10.15;;;5.40;;
52396;SDS011;38322;53.108;6.308;2023-11-21T13:27:43;8.85;;;5.68;;
52396;SDS011;38322;53.108;6.308;2023-11-21T13:30:10;6.80;;;5.07;;
52396;SDS011;38322;53.108;6.308;2023-11-21T13:32:41;8.40;;;5.75;;
52396;SDS011;38322;53.108;6.308;2023-11-21T13:35:09;8.65;;;5.90;;
52396;SDS011;38322;53.108;6.308;2023-11-21T13:37:43;8.45;;;5.45;;
52396;SDS011;38322;53.108;6.308;2023-11-21T13:40:10;8.38;;;5.47;;
52396;SDS011;38322;53.108;6.308;2023-11-21T13:42:40;8.43;;;7.43;;
52396;SDS011;38322;53.108;6.308;2023-11-21T13:45:08;8.82;;;6.15;;
52396;SDS011;38322;53.108;6.308;2023-11-21T13:47:34;8.23;;;5.90;;
52396;SDS011;38322;53.108;6.308;2023-11-21T13:50:01;8.85;;;7.05;;
52396;SDS011;38322;53.108;6.308;2023-11-21T13:52:28;11.45;;;6.88;;
52396;SDS011;38322;53.108;6.308;2023-11-21T13:54:57;9.00;;;6.60;;
52396;SDS011;38322;53.108;6.308;2023-11-21T13:57:26;8.23;;;6.15;;
52396;SDS011;38322;53.108;6.308;2023-11-21T13:59:54;10.82;;;6.10;;
52396;SDS011;38322;53.108;6.308;2023-11-21T14:02:20;7.45;;;5.43;;
52396;SDS011;38322;53.108;6.308;2023-11-21T14:04:53;8.68;;;6.35;;
52396;SDS011;38322;53.108;6.308;2023-11-21T14:07:20;9.55;;;5.80;;
52396;SDS011;38322;53.108;6.308;2023-11-21T14:09:57;15.93;;;7.75;;
52396;SDS011;38322;53.108;6.308;2023-11-21T14:12:23;7.45;;;6.38;;
52396;SDS011;38322;53.108;6.308;2023-11-21T14:14:49;8.07;;;5.78;;
52396;SDS011;38322;53.108;6.308;2023-11-21T14:17:15;9.57;;;5.60;;
52396;SDS011;38322;53.108;6.308;2023-11-21T14:19:41;8.07;;;6.10;;
52396;SDS011;38322;53.108;6.308;2023-11-21T14:22:10;11.07;;;6.55;;
52396;SDS011;38322;53.108;6.308;2023-11-21T14:24:36;8.90;;;5.50;;
52396;SDS011;38322;53.108;6.308;2023-11-21T14:27:02;12.48;;;6.15;;
52396;SDS011;38322;53.108;6.308;2023-11-21T14:29:28;9.07;;;5.68;;
52396;SDS011;38322;53.108;6.308;2023-11-21T14:31:55;10.52;;;6.30;;
52396;SDS011;38322;53.108;6.308;2023-11-21T14:34:23;8.95;;;5.07;;
52396;SDS011;38322;53.108;6.308;2023-11-21T14:36:49;9.90;;;6.13;;
52396;SDS011;38322;53.108;6.308;2023-11-21T14:39:15;8.52;;;6.15;;
52396;SDS011;38322;53.108;6.308;2023-11-21T14:41:49;8.98;;;6.10;;
52396;SDS011;38322;53.108;6.308;2023-11-21T14:44:15;7.05;;;5.78;;
52396;SDS011;38322;53.108;6.308;2023-11-21T14:46:42;7.28;;;5.45;;
52396;SDS011;38322;53.108;6.308;2023-11-21T14:49:16;8.52;;;5.50;;
52396;SDS011;38322;53.108;6.308;2023-11-21T14:51:50;7.82;;;5.05;;
52396;SDS011;38322;53.108;6.308;2023-11-21T14:54:28;5.75;;;4.80;;
52396;SDS011;38322;53.108;6.308;2023-11-21T14:57:11;6.45;;;4.30;;
52396;SDS011;38322;53.108;6.308;2023-11-21T14:59:43;12.77;;;5.38;;
52396;SDS011;38322;53.108;6.308;2023-11-21T15:02:17;10.05;;;5.28;;
52396;SDS011;38322;53.108;6.308;2023-11-21T15:04:47;7.00;;;4.70;;
52396;SDS011;38322;53.108;6.308;2023-11-21T15:07:17;8.18;;;5.47;;
52396;SDS011;38322;53.108;6.308;2023-11-21T15:09:43;5.20;;;3.40;;
52396;SDS011;38322;53.108;6.308;2023-11-21T15:12:11;7.57;;;4.53;;
52396;SDS011;38322;53.108;6.308;2023-11-21T15:14:46;11.18;;;5.20;;
52396;SDS011;38322;53.108;6.308;2023-11-21T15:17:15;6.43;;;4.07;;
52396;SDS011;38322;53.108;6.308;2023-11-21T15:19:50;9.35;;;3.53;;
52396;SDS011;38322;53.108;6.308;2023-11-21T15:22:17;6.13;;;4.03;;
52396;SDS011;38322;53.108;6.308;2023-11-21T15:24:43;5.40;;;2.72;;
52396;SDS011;38322;53.108;6.308;2023-11-21T15:27:11;6.80;;;3.90;;
52396;SDS011;38322;53.108;6.308;2023-11-21T15:29:38;4.60;;;2.75;;
52396;SDS011;38322;53.108;6.308;2023-11-21T15:32:05;6.70;;;2.50;;
52396;SDS011;38322;53.108;6.308;2023-11-21T15:34:32;5.65;;;3.15;;
52396;SDS011;38322;53.108;6.308;2023-11-21T15:36:59;7.05;;;3.03;;
52396;SDS011;38322;53.108;6.308;2023-11-21T15:39:25;5.93;;;2.95;;
52396;SDS011;38322;53.108;6.308;2023-11-21T15:41:54;7.68;;;3.90;;
52396;SDS011;38322;53.108;6.308;2023-11-21T15:44:20;5.40;;;2.83;;
52396;SDS011;38322;53.108;6.308;2023-11-21T15:46:47;4.30;;;3.30;;
52396;SDS011;38322;53.108;6.308;2023-11-21T15:49:13;8.60;;;3.55;;
52396;SDS011;38322;53.108;6.308;2023-11-21T15:51:43;5.15;;;3.63;;
52396;SDS011;38322;53.108;6.308;2023-11-21T15:54:12;7.38;;;3.28;;
52396;SDS011;38322;53.108;6.308;2023-11-21T15:56:38;5.53;;;3.80;;
52396;SDS011;38322;53.108;6.308;2023-11-21T15:59:04;8.07;;;3.70;;
52396;SDS011;38322;53.108;6.308;2023-11-21T16:01:30;5.18;;;3.10;;
52396;SDS011;38322;53.108;6.308;2023-11-21T16:03:57;5.18;;;3.30;;
52396;SDS011;38322;53.108;6.308;2023-11-21T16:06:25;8.07;;;4.75;;
52396;SDS011;38322;53.108;6.308;2023-11-21T16:08:52;8.30;;;3.90;;
52396;SDS011;38322;53.108;6.308;2023-11-21T16:11:19;6.97;;;3.78;;
52396;SDS011;38322;53.108;6.308;2023-11-21T16:13:45;10.07;;;4.55;;
52396;SDS011;38322;53.108;6.308;2023-11-21T16:16:11;6.63;;;4.43;;
52396;SDS011;38322;53.108;6.308;2023-11-21T16:18:37;8.98;;;4.53;;
52396;SDS011;38322;53.108;6.308;2023-11-21T16:21:03;8.27;;;5.07;;
52396;SDS011;38322;53.108;6.308;2023-11-21T16:23:29;9.73;;;4.93;;
52396;SDS011;38322;53.108;6.308;2023-11-21T16:25:56;8.85;;;4.05;;
52396;SDS011;38322;53.108;6.308;2023-11-21T16:28:22;8.88;;;4.07;;
52396;SDS011;38322;53.108;6.308;2023-11-21T16:30:50;5.97;;;4.47;;
52396;SDS011;38322;53.108;6.308;2023-11-21T16:33:16;10.35;;;5.15;;
52396;SDS011;38322;53.108;6.308;2023-11-21T16:35:41;9.88;;;5.80;;
52396;SDS011;38322;53.108;6.308;2023-11-21T16:38:07;6.82;;;4.38;;
52396;SDS011;38322;53.108;6.308;2023-11-21T16:40:33;8.32;;;4.38;;
52396;SDS011;38322;53.108;6.308;2023-11-21T16:42:59;5.13;;;3.75;;
52396;SDS011;38322;53.108;6.308;2023-11-21T16:45:25;6.45;;;3.80;;
52396;SDS011;38322;53.108;6.308;2023-11-21T16:47:51;9.23;;;4.43;;
52396;SDS011;38322;53.108;6.308;2023-11-21T16:50:17;7.93;;;4.22;;
52396;SDS011;38322;53.108;6.308;2023-11-21T16:52:43;8.52;;;4.88;;
52396;SDS011;38322;53.108;6.308;2023-11-21T16:55:09;7.60;;;5.15;;
52396;SDS011;38322;53.108;6.308;2023-11-21T16:57:35;7.53;;;5.07;;
52396;SDS011;38322;53.108;6.308;2023-11-21T17:00:03;12.25;;;4.93;;
52396;SDS011;38322;53.108;6.308;2023-11-21T17:02:34;9.57;;;5.85;;
52396;SDS011;38322;53.108;6.308;2023-11-21T17:05:01;9.25;;;5.47;;
52396;SDS011;38322;53.108;6.308;2023-11-21T17:07:27;6.93;;;4.70;;
52396;SDS011;38322;53.108;6.308;2023-11-21T17:09:54;8.15;;;4.55;;
52396;SDS011;38322;53.108;6.308;2023-11-21T17:12:20;7.95;;;5.45;;
52396;SDS011;38322;53.108;6.308;2023-11-21T17:14:45;11.20;;;5.80;;
52396;SDS011;38322;53.108;6.308;2023-11-21T17:17:14;10.00;;;6.53;;
52396;SDS011;38322;53.108;6.308;2023-11-21T17:19:40;5.75;;;4.60;;
52396;SDS011;38322;53.108;6.308;2023-11-21T17:22:08;11.05;;;5.10;;
52396;SDS011;38322;53.108;6.308;2023-11-21T17:24:34;10.98;;;5.63;;
52396;SDS011;38322;53.108;6.308;2023-11-21T17:27:02;7.38;;;4.43;;
52396;SDS011;38322;53.108;6.308;2023-11-21T17:29:29;11.13;;;5.65;;
52396;SDS011;38322;53.108;6.308;2023-11-21T17:31:55;10.63;;;5.90;;
52396;SDS011;38322;53.108;6.308;2023-11-21T17:34:21;7.25;;;3.90;;
52396;SDS011;38322;53.108;6.308;2023-11-21T17:36:48;5.93;;;4.90;;
52396;SDS011;38322;53.108;6.308;2023-11-21T17:39:13;13.50;;;7.32;;
52396;SDS011;38322;53.108;6.308;2023-11-21T17:41:39;11.35;;;6.70;;
52396;SDS011;38322;53.108;6.308;2023-11-21T17:44:07;11.80;;;7.15;;
52396;SDS011;38322;53.108;6.308;2023-11-21T17:46:33;10.70;;;5.60;;
52396;SDS011;38322;53.108;6.308;2023-11-21T17:48:59;9.75;;;6.35;;
52396;SDS011;38322;53.108;6.308;2023-11-21T17:51:25;9.88;;;6.38;;
52396;SDS011;38322;53.108;6.308;2023-11-21T17:53:50;11.52;;;7.90;;
52396;SDS011;38322;53.108;6.308;2023-11-21T17:56:18;12.82;;;6.53;;
52396;SDS011;38322;53.108;6.308;2023-11-21T17:58:44;14.05;;;6.57;;
52396;SDS011;38322;53.108;6.308;2023-11-21T18:01:11;11.43;;;7.30;;
52396;SDS011;38322;53.108;6.308;2023-11-21T18:03:37;11.38;;;7.13;;
52396;SDS011;38322;53.108;6.308;2023-11-21T18:06:04;13.40;;;7.57;;
52396;SDS011;38322;53.108;6.308;2023-11-21T18:08:30;14.00;;;9.38;;
52396;SDS011;38322;53.108;6.308;2023-11-21T18:10:56;11.75;;;6.60;;
52396;SDS011;38322;53.108;6.308;2023-11-21T18:13:24;10.05;;;6.68;;
52396;SDS011;38322;53.108;6.308;2023-11-21T18:15:50;14.32;;;7.50;;
52396;SDS011;38322;53.108;6.308;2023-11-21T18:18:16;10.68;;;7.55;;
52396;SDS011;38322;53.108;6.308;2023-11-21T18:20:42;14.57;;;8.85;;
52396;SDS011;38322;53.108;6.308;2023-11-21T18:23:10;13.73;;;9.30;;
52396;SDS011;38322;53.108;6.308;2023-11-21T18:25:37;11.48;;;8.90;;
52396;SDS011;38322;53.108;6.308;2023-11-21T18:28:04;10.00;;;7.40;;
52396;SDS011;38322;53.108;6.308;2023-11-21T18:30:30;16.77;;;7.20;;
52396;SDS011;38322;53.108;6.308;2023-11-21T18:32:56;10.10;;;6.85;;
52396;SDS011;38322;53.108;6.308;2023-11-21T18:35:22;8.35;;;7.05;;
52396;SDS011;38322;53.108;6.308;2023-11-21T18:37:47;7.72;;;6.03;;
52396;SDS011;38322;53.108;6.308;2023-11-21T18:40:13;8.63;;;6.28;;
52396;SDS011;38322;53.108;6.308;2023-11-21T18:42:41;12.85;;;9.68;;
52396;SDS011;38322;53.108;6.308;2023-11-21T18:45:09;14.55;;;7.65;;
52396;SDS011;38322;53.108;6.308;2023-11-21T18:47:37;11.55;;;7.40;;
52396;SDS011;38322;53.108;6.308;2023-11-21T18:50:04;10.73;;;8.27;;
52396;SDS011;38322;53.108;6.308;2023-11-21T18:52:31;13.95;;;7.97;;
52396;SDS011;38322;53.108;6.308;2023-11-21T18:54:58;10.00;;;8.98;;
52396;SDS011;38322;53.108;6.308;2023-11-21T18:57:26;17.15;;;9.52;;
52396;SDS011;38322;53.108;6.308;2023-11-21T18:59:52;12.07;;;9.13;;
52396;SDS011;38322;53.108;6.308;2023-11-21T19:02:18;13.05;;;7.70;;
52396;SDS011;38322;53.108;6.308;2023-11-21T19:04:44;11.43;;;8.20;;
52396;SDS011;38322;53.108;6.308;2023-11-21T19:07:10;11.07;;;8.23;;
52396;SDS011;38322;53.108;6.308;2023-11-21T19:09:36;10.75;;;8.80;;
52396;SDS011;38322;53.108;6.308;2023-11-21T19:12:03;10.02;;;7.70;;
52396;SDS011;38322;53.108;6.308;2023-11-21T19:14:29;12.13;;;8.35;;
52396;SDS011;38322;53.108;6.308;2023-11-21T19:16:55;18.85;;;9.23;;
52396;SDS011;38322;53.108;6.308;2023-11-21T19:19:21;11.32;;;9.60;;
52396;SDS011;38322;53.108;6.308;2023-11-21T19:21:47;16.63;;;8.10;;
52396;SDS011;38322;53.108;6.308;2023-11-21T19:24:13;9.68;;;8.23;;
52396;SDS011;38322;53.108;6.308;2023-11-21T19:26:43;16.98;;;9.82;;
52396;SDS011;38322;53.108;6.308;2023-11-21T19:29:09;18.73;;;9.93;;
52396;SDS011;38322;53.108;6.308;2023-11-21T19:31:35;10.18;;;8.02;;
52396;SDS011;38322;53.108;6.308;2023-11-21T19:34:01;11.98;;;9.05;;
52396;SDS011;38322;53.108;6.308;2023-11-21T19:36:27;14.30;;;9.30;;
52396;SDS011;38322;53.108;6.308;2023-11-21T19:38:53;11.48;;;9.77;;
52396;SDS011;38322;53.108;6.308;2023-11-21T19:41:19;12.57;;;10.30;;
52396;SDS011;38322;53.108;6.308;2023-11-21T19:43:47;14.30;;;9.70;;
52396;SDS011;38322;53.108;6.308;2023-11-21T19:46:14;12.63;;;9.10;;
52396;SDS011;38322;53.108;6.308;2023-11-21T19:48:41;14.35;;;10.10;;
52396;SDS011;38322;53.108;6.308;2023-11-21T19:51:08;13.63;;;9.52;;
52396;SDS011;38322;53.108;6.308;2023-11-21T19:53:34;14.52;;;9.32;;
52396;SDS011;38322;53.108;6.308;2023-11-21T19:56:07;12.50;;;9.75;;
52396;SDS011;38322;53.108;6.308;2023-11-21T19:58:35;15.48;;;10.57;;
52396;SDS011;38322;53.108;6.308;2023-11-21T20:01:01;17.95;;;12.10;;
52396;SDS011;38322;53.108;6.308;2023-11-21T20:03:27;11.57;;;9.20;;
52396;SDS011;38322;53.108;6.308;2023-11-21T20:05:53;12.02;;;9.60;;
52396;SDS011;38322;53.108;6.308;2023-11-21T20:08:19;11.05;;;9.35;;
52396;SDS011;38322;53.108;6.308;2023-11-21T20:10:45;14.15;;;10.32;;
52396;SDS011;38322;53.108;6.308;2023-11-21T20:13:12;10.65;;;9.10;;
52396;SDS011;38322;53.108;6.308;2023-11-21T20:15:38;11.07;;;9.23;;
52396;SDS011;38322;53.108;6.308;2023-11-21T20:18:05;14.48;;;10.88;;
52396;SDS011;38322;53.108;6.308;2023-11-21T20:20:31;11.00;;;9.20;;
52396;SDS011;38322;53.108;6.308;2023-11-21T20:22:58;16.20;;;9.73;;
52396;SDS011;38322;53.108;6.308;2023-11-21T20:25:26;13.45;;;10.70;;
52396;SDS011;38322;53.108;6.308;2023-11-21T20:27:53;14.10;;;9.55;;
52396;SDS011;38322;53.108;6.308;2023-11-21T20:30:20;14.82;;;9.57;;
52396;SDS011;38322;53.108;6.308;2023-11-21T20:32:48;14.13;;;9.43;;
52396;SDS011;38322;53.108;6.308;2023-11-21T20:35:16;14.82;;;11.45;;
52396;SDS011;38322;53.108;6.308;2023-11-21T20:37:44;13.98;;;9.20;;
52396;SDS011;38322;53.108;6.308;2023-11-21T20:40:11;12.98;;;9.63;;
52396;SDS011;38322;53.108;6.308;2023-11-21T20:42:38;15.00;;;8.63;;
52396;SDS011;38322;53.108;6.308;2023-11-21T20:45:09;13.23;;;9.73;;